LIME Airport Information

Runway Information
Runway 10 Length 9636 ft width 148 ft
Elevation 779 ft Threshold 312 ft Heading 105
Runway 28 Length 9636 ft Width 148 ft
Elevation 754 ft Threshold 427 ft Heading 285
Runway 12 Length 2552 ft width 59 ft
Elevation 782 ft Threshold 210 ft Heading 121
Runway 30 Length 2552 ft Width 59 ft
Elevation 782 ft Threshold 328 ft Heading 301
Airport Frequencies
Type APP Name MILANO APP Frequency 126.75 MHZ
Type ATIS Name ATIS Frequency 112.6 MHZ
Type GND Name ORIO GND Frequency 120.5 MHZ
Type TWR Name ORIO TWR Frequency 126.5 MHZ
Airport Navaids
Type VOR-DME Name Orio Al Serio Frequency 112600 KHZ
Type NDB Name Orio Al Serio Frequency 377 KHZ
Airport Weather Information & NOTAM
ADDS - METARS form results

(1713 UTC 17 August 2019)
Data provider http://aviationweather.gov/metar/data/
 
METAR text: LIME 171650Z 31004KT 270V020 CAVOK 27/15 Q1016 NOSIG
Conditions at: LIME (BERGAMO/ORIO SER, IT) observed 1650 UTC 17 August 2019
Temperature: 27.0°C (81°F)
Dewpoint: 15.0°C (59°F) [RH = 48%]
Pressure (altimeter): 30.00 inches Hg (1016.0 mb)
Winds: from the NW (310 degrees) at 5 MPH (4 knots; 2.1 m/s)
Visibility: 6 or more miles (10+ km)
Ceiling: ceiling and visibility are OK
Clouds: unknown
Weather: no significant weather observed at this time

METAR text: LIME 171620Z 30004KT 260V330 CAVOK 27/16 Q1016 NOSIG
Conditions at: LIME (BERGAMO/ORIO SER, IT) observed 1620 UTC 17 August 2019
Temperature: 27.0°C (81°F)
Dewpoint: 16.0°C (61°F) [RH = 51%]
Pressure (altimeter): 30.00 inches Hg (1016.0 mb)
Winds: from the WNW (300 degrees) at 5 MPH (4 knots; 2.1 m/s)
Visibility: 6 or more miles (10+ km)
Ceiling: ceiling and visibility are OK
Clouds: unknown
Weather: no significant weather observed at this time

Forecast for: LIME (BERGAMO/ORIO SER, IT)
Text: TAF LIME 171100Z 1712/1812 VRB05KT 9999 SCT060
Forecast period: 1200 UTC 17 August 2019 to 1200 UTC 18 August 2019
Forecast type: FROM: standard forecast or significant change
Winds: variable direction winds at 6 MPH (5 knots; 2.6 m/s)
Visibility: 6 or more miles 10+ km)
Ceiling: at least 12,000 feet AGL
Clouds: scattered clouds at 6000 feet AGL
Weather: no significant weather forecast for this period